Terminal Aerodrome Forecast
Issued by NWS Upton, NY

Current Version | Previous Version | Text Only | Print | Product List | Glossary On
Versions: 1 2 3 4 5 6 7 8 9 10 11 12 13 14 15 16 17 18 19 20 21 22 23 24 25 26
000
FTUS41 KOKX 051440 AAA
TAFEWR
TAF AMD
KEWR 051440Z 0515/0618 23006KT P6SM FEW060 SCT250
     FM052000 16010KT P6SM FEW060
     FM060100 21005KT P6SM FEW060
     FM060600 23004KT 4SM BR FEW006 SCT250
     FM061300 17006KT P6SM SCT040 BKN250=

USA.gov is the U.S. government's official web portal to all federal, state and local government web resources and services.